Time;durP1;ratioP1;P1;durP2;ratioP2;P2;SDS_P1;SDS_P2;PMS_P1;PMS_P2;Temp;Humidity;BMP_temperature;BMP_pressure;BME280_temperature;BME280_humidity;BME280_pressure;Samples;Min_cycle;Max_cycle;Signal;HPM_P1;HPM_P2
2022/06/01 00:01:11;;;;;;;1.75;1.60;;;;;;;17.72;51.77;96500.97;10450490;28;20427;-23
2022/06/01 00:06:12;;;;;;;1.42;1.10;;;;;;;17.74;51.73;96504.38;10449632;28;20033;-23
2022/06/01 00:11:13;;;;;;;4.20;1.53;;;;;;;17.72;51.68;96506.03;10475763;28;20037;-24
2022/06/01 00:16:13;;;;;;;2.55;1.30;;;;;;;17.70;51.42;96501.00;10449780;28;20271;-23
2022/06/01 00:21:14;;;;;;;3.58;1.70;;;;;;;17.64;51.90;96492.53;10450060;28;20057;-24
2022/06/01 00:26:14;;;;;;;2.47;1.70;;;;;;;17.63;51.80;96491.72;10463912;28;20123;-23
2022/06/01 00:31:14;;;;;;;3.17;1.30;;;;;;;17.62;51.90;96484.97;10464670;28;20087;-23
2022/06/01 00:36:15;;;;;;;3.35;1.50;;;;;;;17.70;51.65;96482.41;10451232;28;20036;-23
2022/06/01 00:41:16;;;;;;;2.37;1.40;;;;;;;17.71;51.61;96490.03;10460608;28;20021;-22
2022/06/01 00:46:17;;;;;;;2.53;1.60;;;;;;;17.69;51.79;96481.59;10449806;28;20037;-23
2022/06/01 00:51:21;;;;;;;3.47;1.47;;;;;;;17.63;52.10;96483.25;10465507;28;20036;-23
2022/06/01 00:56:33;;;;;;;4.60;1.65;;;;;;;17.61;52.09;96482.44;10474571;28;20427;-23
2022/06/01 01:01:33;;;;;;;2.20;1.30;;;;;;;17.56;52.33;96477.38;10449777;28;20029;-23
2022/06/01 01:06:40;;;;;;;2.40;1.40;;;;;;;17.58;52.17;96473.13;10449357;28;20399;-24
2022/06/01 01:11:50;;;;;;;4.28;2.42;;;;;;;17.71;51.79;96476.50;10449037;28;20033;-25
2022/06/01 01:16:51;;;;;;;2.83;1.50;;;;;;;17.71;51.78;96471.44;10450167;28;20048;-23
2022/06/01 01:22:18;;;;;;;1.98;1.55;;;;;;;17.67;51.96;96469.78;10493499;28;20040;-23
2022/06/01 01:27:18;;;;;;;2.00;1.30;;;;;;;17.64;52.32;96474.81;10466961;28;20045;-22
2022/06/01 01:32:18;;;;;;;2.28;1.60;;;;;;;17.66;52.31;96475.69;10456536;28;20406;-24
2022/06/01 01:37:27;;;;;;;2.27;1.77;;;;;;;17.64;52.31;96479.88;10456333;28;20111;-23
2022/06/01 01:42:28;;;;;;;1.98;1.50;;;;;;;17.53;52.30;96457.13;10456208;28;20119;-24
2022/06/01 01:47:28;;;;;;;3.27;1.43;;;;;;;17.70;52.01;96479.88;10456431;28;20524;-23
2022/06/01 01:52:29;;;;;;;5.47;1.53;;;;;;;17.70;52.02;96469.75;10455317;28;20041;-23
2022/06/01 01:57:53;;;;;;;4.57;1.80;;;;;;;17.67;52.30;96483.25;10480443;28;20298;-23
2022/06/01 02:03:06;;;;;;;1.60;1.42;;;;;;;17.62;52.23;96469.78;10493666;28;20078;-23
2022/06/01 02:08:14;;;;;;;2.38;1.38;;;;;;;17.57;52.15;96465.56;10455026;28;20029;-24
2022/06/01 02:13:17;;;;;;;1.80;1.42;;;;;;;17.57;52.52;96471.47;10454909;28;20045;-23
2022/06/01 02:18:23;;;;;;;3.20;1.60;;;;;;;17.55;52.59;96473.16;10454116;28;20499;-23
2022/06/01 02:23:24;;;;;;;3.63;1.65;;;;;;;17.67;52.35;96474.84;10454444;28;20036;-25
2022/06/01 02:28:25;;;;;;;2.58;1.88;;;;;;;17.69;51.95;96473.13;10451934;28;20033;-24
2022/06/01 02:33:32;;;;;;;1.70;1.58;;;;;;;17.57;52.05;96468.09;10453416;28;20247;-25
2022/06/01 02:38:39;;;;;;;3.60;2.13;;;;;;;17.64;52.44;96478.22;10491891;28;20037;-22
2022/06/01 02:43:50;;;;;;;2.17;1.60;;;;;;;17.64;52.32;96472.28;10459817;28;20148;-23
2022/06/01 02:48:51;;;;;;;5.45;1.90;;;;;;;17.60;52.28;96478.22;10453546;28;20040;-24
2022/06/01 02:53:51;;;;;;;3.58;1.70;;;;;;;17.59;52.71;96463.88;10453086;28;20032;-24
2022/06/01 02:58:52;;;;;;;4.67;1.80;;;;;;;17.65;52.42;96479.06;10452844;28;20231;-24
2022/06/01 03:03:53;;;;;;;2.47;1.70;;;;;;;17.72;52.23;96475.66;10452818;28;20036;-24
2022/06/01 03:08:53;;;;;;;3.25;1.90;;;;;;;17.64;52.12;96478.22;10492508;28;20294;-23
2022/06/01 03:13:54;;;;;;;4.90;1.63;;;;;;;17.68;52.16;96479.06;10456834;28;20041;-23
2022/06/01 03:18:54;;;;;;;3.47;2.17;;;;;;;17.68;52.24;96484.13;10452780;28;20673;-23
2022/06/01 03:23:55;;;;;;;2.17;1.48;;;;;;;17.63;52.14;96473.13;10452063;28;20028;-22
2022/06/01 03:28:56;;;;;;;2.42;1.60;;;;;;;17.63;52.25;96476.53;10452128;28;20060;-24
2022/06/01 03:33:57;;;;;;;3.13;1.70;;;;;;;17.62;52.30;96476.50;10450912;28;20057;-24
2022/06/01 03:38:58;;;;;;;2.58;1.60;;;;;;;17.70;52.04;96469.75;10460680;28;20101;-22
2022/06/01 03:49:18;;;;;;;3.08;1.95;;;;;;;17.63;52.10;96471.47;10450720;28;20111;-23
2022/06/01 03:54:20;;;;;;;3.00;1.50;;;;;;;17.67;52.28;96473.13;10450855;28;20041;-22
2022/06/01 03:59:20;;;;;;;2.50;1.50;;;;;;;17.68;52.35;96479.88;10450624;28;20037;-23
2022/06/01 04:04:21;;;;;;;1.80;1.63;;;;;;;17.75;52.22;96473.13;10450435;28;20045;-22
2022/06/01 04:09:21;;;;;;;2.87;1.33;;;;;;;17.73;52.17;96483.25;10481498;28;20494;-23
2022/06/01 04:14:22;;;;;;;3.75;1.75;;;;;;;17.74;52.43;96481.59;10450016;28;20302;-22
2022/06/01 04:19:23;;;;;;;2.03;1.45;;;;;;;17.79;52.09;96483.25;10456723;28;20036;-24
2022/06/01 04:24:28;;;;;;;2.30;1.57;;;;;;;17.75;52.29;96488.34;10453654;28;20033;-23
2022/06/01 04:29:28;;;;;;;2.03;1.67;;;;;;;17.75;52.26;96489.16;10489841;28;20377;-23
2022/06/01 04:34:29;;;;;;;1.90;1.43;;;;;;;17.77;52.13;96479.03;10489819;28;20108;-23
2022/06/01 04:39:29;;;;;;;2.97;1.50;;;;;;;17.73;52.23;96478.19;10472220;28;20291;-23
2022/06/01 04:44:30;;;;;;;2.35;1.67;;;;;;;17.60;52.53;96478.22;10449023;28;20043;-22
2022/06/01 04:49:30;;;;;;;4.50;1.67;;;;;;;17.54;52.65;96455.44;10450098;28;20160;-23
2022/06/01 04:54:31;;;;;;;3.73;1.50;;;;;;;17.71;52.47;96473.97;10454381;28;20512;-22
2022/06/01 04:59:31;;;;;;;3.67;1.50;;;;;;;17.81;52.37;96471.44;10498710;28;20279;-24
2022/06/01 05:04:32;;;;;;;6.73;1.80;;;;;;;17.84;52.90;96470.59;10478172;28;20037;-25
2022/06/01 05:09:33;;;;;;;3.80;1.35;;;;;;;17.75;52.75;96480.75;10461491;28;20115;-23
2022/06/01 05:14:33;;;;;;;3.78;1.30;;;;;;;17.77;52.15;96479.03;10456561;28;20252;-24
2022/06/01 05:19:34;;;;;;;4.03;1.53;;;;;;;17.77;52.30;96474.84;10456508;28;20483;-23
2022/06/01 05:24:35;;;;;;;2.13;1.42;;;;;;;17.77;52.51;96471.44;10474740;28;20079;-23
2022/06/01 05:29:35;;;;;;;2.45;1.35;;;;;;;17.80;52.55;96476.50;10457050;28;20028;-23
2022/06/01 05:34:36;;;;;;;2.27;1.40;;;;;;;17.87;52.30;96476.50;10486205;28;20036;-23
2022/06/01 05:39:36;;;;;;;2.20;1.13;;;;;;;17.88;52.32;96477.31;10496111;28;20112;-23
2022/06/01 05:44:37;;;;;;;2.45;1.27;;;;;;;17.86;52.03;96473.97;10455576;28;20021;-22
2022/06/01 05:49:37;;;;;;;2.13;1.30;;;;;;;17.85;52.26;96479.88;10455393;28;20152;-24
2022/06/01 05:54:37;;;;;;;2.00;1.30;;;;;;;17.84;52.20;96470.59;10456499;28;20045;-23
2022/06/01 05:59:38;;;;;;;1.60;1.00;;;;;;;17.82;52.47;96474.81;10497501;28;20645;-23
2022/06/01 06:04:38;;;;;;;3.30;1.63;;;;;;;17.83;52.67;96473.97;10482460;28;20079;-24
2022/06/01 06:09:39;;;;;;;2.40;1.27;;;;;;;17.82;52.46;96478.19;10455268;28;20278;-23
2022/06/01 06:14:39;;;;;;;1.93;1.50;;;;;;;17.87;52.17;96475.66;10454974;28;20298;-23
2022/06/01 06:19:39;;;;;;;1.58;1.08;;;;;;;17.91;52.16;96475.63;10454783;28;20090;-23
2022/06/01 06:24:40;;;;;;;2.10;1.13;;;;;;;17.85;52.47;96477.34;10453972;28;20032;-23
2022/06/01 06:29:40;;;;;;;3.70;1.57;;;;;;;17.94;52.28;96484.94;10455038;28;20033;-22
2022/06/01 06:34:40;;;;;;;2.80;1.80;;;;;;;17.72;52.58;96455.41;10453422;28;20029;-23
2022/06/01 06:39:41;;;;;;;2.70;1.67;;;;;;;17.84;52.54;96485.78;10453483;28;20037;-24
2022/06/01 06:44:41;;;;;;;1.23;1.13;;;;;;;17.87;52.52;96485.78;10454064;28;20271;-24
2022/06/01 06:49:42;;;;;;;1.77;1.23;;;;;;;17.88;52.30;96487.47;10453766;28;20716;-24
2022/06/01 06:54:42;;;;;;;1.83;1.33;;;;;;;17.92;52.23;96504.34;10453440;28;20055;-25
2022/06/01 06:59:42;;;;;;;2.00;1.20;;;;;;;17.97;52.05;96493.38;10453118;28;20052;-23
2022/06/01 07:04:44;;;;;;;2.40;1.33;;;;;;;17.86;52.61;96495.06;10469987;28;20324;-22
2022/06/01 07:09:44;;;;;;;1.77;1.10;;;;;;;17.93;52.74;96503.50;10491341;28;20062;-24
2022/06/01 07:14:44;;;;;;;1.30;1.20;;;;;;;17.92;52.19;96489.16;10451119;28;20075;-23
2022/06/01 07:19:45;;;;;;;1.37;1.10;;;;;;;17.90;52.33;96485.78;10452781;28;20439;-23
2022/06/01 07:24:45;;;;;;;2.77;1.10;;;;;;;17.93;52.32;96484.06;10452191;28;20064;-24
2022/06/01 07:29:45;;;;;;;2.70;2.03;;;;;;;18.06;51.76;96487.41;10452469;28;20374;-23
2022/06/01 07:34:46;;;;;;;1.93;1.13;;;;;;;18.02;51.81;96483.22;10467336;28;20055;-22
2022/06/01 07:45:06;;;;;;;2.85;1.90;;;;;;;17.94;51.97;96500.97;10451231;28;20037;-22
2022/06/01 07:50:07;;;;;;;1.30;1.00;;;;;;;17.89;52.46;96504.34;10468440;28;20051;-23
2022/06/01 07:55:07;;;;;;;1.48;0.98;;;;;;;17.98;51.97;96499.28;10486583;28;20476;-23
2022/06/01 08:00:08;;;;;;;1.30;1.20;;;;;;;17.92;52.10;96505.19;10451438;28;20045;-23
2022/06/01 08:05:19;;;;;;;1.98;1.50;;;;;;;17.76;52.33;96492.56;10450645;28;20037;-23
2022/06/01 08:10:21;;;;;;;2.95;1.30;;;;;;;17.77;52.51;96510.28;10456965;28;20060;-23
2022/06/01 08:15:21;;;;;;;1.75;1.20;;;;;;;17.75;52.31;96516.19;10491123;28;20033;-23
2022/06/01 08:20:22;;;;;;;3.60;1.27;;;;;;;17.82;51.81;96528.81;10472170;28;20033;-23
2022/06/01 08:25:24;;;;;;;1.70;1.33;;;;;;;17.60;51.32;96504.38;10456580;28;20043;-23
2022/06/01 08:30:27;;;;;;;1.27;1.00;;;;;;;17.72;50.97;96516.16;10491688;28;20032;-23
2022/06/01 08:35:31;;;;;;;2.78;1.33;;;;;;;17.71;50.68;96519.53;10473791;28;20056;-23
2022/06/01 08:40:50;;;;;;;1.30;1.00;;;;;;;17.65;50.48;96524.63;10458281;28;20498;-23
2022/06/01 08:45:59;;;;;;;1.13;0.98;;;;;;;17.70;50.99;96535.59;10490872;28;20123;-24
2022/06/01 08:51:00;;;;;;;1.92;0.95;;;;;;;17.67;50.60;96538.13;10478335;28;20087;-24
2022/06/01 08:56:10;;;;;;;2.35;0.93;;;;;;;17.62;50.30;96530.53;10448880;28;20037;-23
2022/06/01 09:01:37;;;;;;;2.97;1.30;;;;;;;17.72;50.17;96546.53;10449295;28;20036;-23
2022/06/01 09:06:47;;;;;;;2.13;0.88;;;;;;;17.81;50.29;96541.47;10448895;28;20083;-22
2022/06/01 09:11:47;;;;;;;1.67;1.20;;;;;;;17.71;50.52;96544.88;10448903;28;20029;-23
2022/06/01 09:16:51;;;;;;;1.20;1.10;;;;;;;17.74;49.57;96553.31;10450098;28;20047;-23
2022/06/01 09:27:42;;;;;;;0.80;0.80;;;;;;;17.68;49.47;96555.00;10449213;28;20510;-23
2022/06/01 09:32:59;;;;;;;1.17;0.95;;;;;;;17.70;49.78;96558.38;10448353;28;20483;-23
2022/06/01 09:38:04;;;;;;;1.58;1.00;;;;;;;17.66;49.60;96554.16;10451125;28;20044;-22
2022/06/01 09:43:04;;;;;;;1.58;1.00;;;;;;;17.71;49.62;96565.97;10485750;28;20102;-24
2022/06/01 09:48:24;;;;;;;1.83;1.00;;;;;;;17.77;49.45;96552.47;10497981;28;20453;-23
2022/06/01 09:53:34;;;;;;;1.55;1.00;;;;;;;17.66;49.54;96569.34;10461316;28;20037;-22
2022/06/01 10:09:25;;;;;;;2.33;1.00;;;;;;;17.70;49.70;96574.41;10455032;28;20048;-26
2022/06/01 10:14:32;;;;;;;2.10;0.90;;;;;;;17.70;49.74;96576.94;10455424;28;20033;-25
2022/06/01 10:19:34;;;;;;;0.95;0.70;;;;;;;17.65;49.66;96578.63;10457257;28;20036;-26
2022/06/01 10:24:50;;;;;;;1.67;0.93;;;;;;;17.72;49.74;96587.06;10493673;28;20032;-23
2022/06/01 10:30:14;;;;;;;1.85;0.95;;;;;;;17.84;49.64;96587.91;10454109;28;20487;-23
2022/06/01 10:35:26;;;;;;;1.80;0.90;;;;;;;17.77;49.74;96590.44;10475536;28;20043;-23
2022/06/01 10:40:32;;;;;;;3.78;1.00;;;;;;;17.65;49.48;96586.22;10456972;28;20040;-23
2022/06/01 10:45:39;;;;;;;1.83;1.00;;;;;;;17.66;49.55;96577.78;10469655;28;20091;-24
2022/06/01 10:51:05;;;;;;;2.13;0.85;;;;;;;17.65;49.31;96572.72;10464560;28;20039;-24
2022/06/01 10:56:06;;;;;;;1.45;1.00;;;;;;;17.75;49.61;96579.47;10455641;28;20033;-24
2022/06/01 11:01:13;;;;;;;1.83;0.90;;;;;;;17.62;49.49;96575.25;10490016;28;20547;-24
2022/06/01 11:06:26;;;;;;;0.70;0.70;;;;;;;17.69;49.51;96584.53;10459689;28;20047;-23
2022/06/01 11:11:35;;;;;;;1.90;1.00;;;;;;;17.75;49.75;96592.16;10448440;28;20506;-23
2022/06/01 11:16:58;;;;;;;1.00;0.80;;;;;;;17.72;49.74;96597.19;10448326;28;20039;-24
2022/06/01 11:22:18;;;;;;;1.48;1.15;;;;;;;17.74;49.00;96600.59;10460023;28;20039;-23
2022/06/01 11:27:46;;;;;;;1.48;0.80;;;;;;;17.75;49.52;96600.56;10465663;28;20037;-23
2022/06/01 11:32:57;;;;;;;1.05;0.90;;;;;;;17.69;49.49;96602.25;10451812;28;20076;-23
2022/06/01 11:38:26;;;;;;;1.63;1.10;;;;;;;17.68;49.57;96613.22;10451618;28;20095;-23
2022/06/01 11:43:35;;;;;;;1.40;0.90;;;;;;;17.71;49.58;96620.81;10450430;28;20487;-24
2022/06/01 11:48:38;;;;;;;1.13;0.90;;;;;;;17.63;50.08;96638.53;10455993;28;20028;-23
2022/06/01 11:53:41;;;;;;;1.25;1.10;;;;;;;17.66;49.95;96642.78;10491603;28;20120;-24
2022/06/01 11:58:54;;;;;;;1.45;1.00;;;;;;;17.68;50.08;96631.78;10456244;28;20412;-25
2022/06/01 12:04:08;;;;;;;0.93;0.90;;;;;;;17.74;49.32;96598.06;10450204;28;20373;-24
2022/06/01 12:09:41;;;;;;;2.00;1.40;;;;;;;17.70;49.64;96589.59;10450451;28;20052;-23
2022/06/01 12:14:56;;;;;;;1.10;1.00;;;;;;;17.76;50.01;96569.34;10449937;28;20102;-23
2022/06/01 12:20:12;;;;;;;2.40;1.00;;;;;;;17.71;50.05;96552.47;10451079;28;20087;-22
2022/06/01 12:31:13;;;;;;;1.40;1.30;;;;;;;17.74;49.94;96534.75;10450298;28;20041;-23
2022/06/01 12:36:14;;;;;;;1.20;1.10;;;;;;;17.76;49.97;96545.72;10450259;28;20121;-23
2022/06/01 12:41:18;;;;;;;1.20;0.80;;;;;;;17.73;49.85;96543.19;10450601;28;20037;-22
2022/06/01 12:46:26;;;;;;;1.10;1.00;;;;;;;17.90;50.10;96538.97;10449463;28;20111;-23
2022/06/01 12:51:27;;;;;;;1.00;0.90;;;;;;;17.90;49.89;96536.44;10450066;28;20037;-22
2022/06/01 12:56:28;;;;;;;0.82;0.75;;;;;;;17.96;50.14;96541.47;10449016;28;20041;-24
2022/06/01 13:01:30;;;;;;;1.08;0.80;;;;;;;17.82;49.98;96538.13;10449875;28;20086;-23
2022/06/01 13:06:33;;;;;;;1.30;0.93;;;;;;;17.75;50.03;96533.91;10449111;28;20546;-24
2022/06/01 13:11:34;;;;;;;1.10;0.90;;;;;;;17.76;49.86;96521.22;10448839;28;20064;-24
2022/06/01 13:16:43;;;;;;;4.75;1.08;;;;;;;17.81;49.90;96529.69;10456262;28;20029;-23
2022/06/01 13:21:54;;;;;;;1.00;0.82;;;;;;;17.86;49.77;96540.66;10489712;28;20035;-23
2022/06/01 13:26:57;;;;;;;2.10;1.10;;;;;;;17.93;49.97;96531.34;10480190;28;20154;-22
2022/06/01 13:32:02;;;;;;;2.83;1.40;;;;;;;18.08;50.14;96532.19;10476424;28;20039;-22
2022/06/01 13:37:08;;;;;;;1.75;1.00;;;;;;;17.97;49.71;96517.84;10471610;28;20025;-23
2022/06/01 13:42:22;;;;;;;1.92;1.08;;;;;;;17.96;49.62;96521.22;10474427;28;20032;-23
2022/06/01 13:47:26;;;;;;;1.98;0.88;;;;;;;17.99;49.67;96527.13;10471102;28;20040;-23
2022/06/01 13:52:28;;;;;;;1.10;0.90;;;;;;;18.04;49.94;96532.19;10474813;28;20323;-23
2022/06/01 13:57:30;;;;;;;1.10;0.90;;;;;;;17.84;49.56;96537.25;10476817;28;20115;-23
2022/06/01 14:02:35;;;;;;;1.30;0.75;;;;;;;17.90;49.68;96546.56;10470350;28;20020;-23
2022/06/01 14:08:02;;;;;;;1.98;0.90;;;;;;;17.92;49.34;96543.16;10462817;28;20095;-22
2022/06/01 14:13:02;;;;;;;1.45;0.73;;;;;;;18.03;49.84;96541.50;10478057;28;20124;-24
2022/06/01 14:18:08;;;;;;;1.45;1.02;;;;;;;18.04;49.62;96549.91;10460551;28;20609;-23
2022/06/01 14:23:09;;;;;;;1.60;1.05;;;;;;;18.01;49.36;96548.22;10471786;28;20211;-23
2022/06/01 14:33:29;;;;;;;0.70;0.63;;;;;;;18.02;49.75;96536.41;10472085;28;20044;-23
2022/06/01 14:38:29;;;;;;;1.17;0.80;;;;;;;17.95;50.22;96537.25;10487855;28;20040;-23
2022/06/01 14:43:36;;;;;;;0.70;0.60;;;;;;;17.95;49.49;96534.72;10464132;28;20554;-24
2022/06/01 14:48:36;;;;;;;1.23;1.00;;;;;;;17.95;49.55;96532.19;10463021;28;20040;-24
2022/06/01 14:53:39;;;;;;;0.70;0.70;;;;;;;17.90;49.13;96529.66;10467459;28;20072;-24
2022/06/01 14:58:40;;;;;;;0.93;0.82;;;;;;;17.92;49.22;96519.53;10475613;28;20039;-23
2022/06/01 15:03:44;;;;;;;1.27;0.70;;;;;;;17.93;49.55;96521.22;10472772;28;20025;-23
2022/06/01 15:08:44;;;;;;;2.00;0.90;;;;;;;18.04;49.49;96511.91;10470560;28;20094;-23
2022/06/01 15:13:45;;;;;;;1.35;0.60;;;;;;;18.02;49.48;96526.28;10451081;28;20041;-23
2022/06/01 15:18:47;;;;;;;1.43;0.70;;;;;;;17.98;49.35;96512.78;10491889;28;20028;-23
2022/06/01 15:23:47;;;;;;;1.00;0.70;;;;;;;18.00;49.63;96513.59;10485671;28;20705;-23
2022/06/01 15:28:48;;;;;;;0.80;0.80;;;;;;;17.98;49.38;96515.31;10457427;28;20091;-22
2022/06/01 15:44:26;;;;;;;2.20;0.82;;;;;;;18.00;49.67;96497.59;10451174;28;20063;-23
2022/06/01 15:49:32;;;;;;;0.98;0.80;;;;;;;18.05;49.63;96500.94;10451130;28;20067;-22
2022/06/01 15:54:33;;;;;;;2.53;1.10;;;;;;;18.08;49.51;96500.94;10476576;28;20052;-22
2022/06/01 15:59:33;;;;;;;1.00;0.75;;;;;;;18.05;49.70;96508.53;10450972;28;20403;-23
2022/06/01 16:04:35;;;;;;;3.90;1.00;;;;;;;17.99;49.81;96491.66;10449882;28;20091;-23
2022/06/01 16:09:35;;;;;;;5.18;0.80;;;;;;;17.97;49.73;96502.63;10455996;28;20415;-24
2022/06/01 16:14:35;;;;;;;0.80;0.77;;;;;;;17.99;49.80;96500.97;10472193;28;20032;-24
2022/06/01 16:19:36;;;;;;;0.70;0.57;;;;;;;17.99;49.73;96501.78;10491397;28;20032;-23
2022/06/01 16:24:37;;;;;;;4.03;0.98;;;;;;;17.99;50.33;96498.44;10457414;28;20114;-23
2022/06/01 16:29:37;;;;;;;4.13;0.90;;;;;;;18.01;50.06;96494.22;10449720;28;20033;-22
2022/06/01 16:34:38;;;;;;;7.60;2.40;;;;;;;18.24;52.82;96488.22;10466927;28;20522;-22
2022/06/01 16:39:38;;;;;;;6.18;1.40;;;;;;;18.26;49.96;96488.22;10453730;28;20471;-23
2022/06/01 16:44:39;;;;;;;3.23;0.80;;;;;;;18.18;50.11;96490.75;10449740;28;20033;-25
2022/06/01 16:49:39;;;;;;;1.13;0.88;;;;;;;18.08;50.04;96481.50;10453433;28;20472;-22
2022/06/01 16:54:40;;;;;;;1.20;0.73;;;;;;;18.03;50.26;96487.44;10458058;28;20407;-22
2022/06/01 16:59:41;;;;;;;2.50;0.97;;;;;;;17.96;50.49;96488.28;10499961;28;20041;-22
2022/06/01 17:04:41;;;;;;;2.08;0.82;;;;;;;18.01;50.38;96492.50;10482380;28;20476;-23
2022/06/01 17:09:43;;;;;;;1.40;0.75;;;;;;;17.96;50.45;96501.81;10457070;28;20029;-23
2022/06/01 17:14:43;;;;;;;3.30;0.80;;;;;;;18.01;50.65;96504.34;10456533;28;20036;-23
2022/06/01 17:19:44;;;;;;;4.07;1.17;;;;;;;17.99;50.74;96511.94;10456734;28;20047;-23
2022/06/01 17:24:44;;;;;;;0.98;0.93;;;;;;;18.09;50.42;96502.63;10477820;28;20289;-23
2022/06/01 17:29:44;;;;;;;2.07;1.00;;;;;;;18.08;50.23;96513.63;10456390;28;20427;-24
2022/06/01 17:34:45;;;;;;;2.00;1.00;;;;;;;17.98;50.43;96510.25;10455868;28;20053;-22
2022/06/01 17:39:46;;;;;;;1.55;0.77;;;;;;;18.06;50.22;96500.94;10457530;28;20041;-22
2022/06/01 17:44:46;;;;;;;0.80;0.73;;;;;;;18.01;50.34;96500.09;10497020;28;20398;-23
2022/06/01 17:49:46;;;;;;;1.10;0.83;;;;;;;17.92;50.50;96505.19;10480906;28;20499;-23
2022/06/01 17:54:47;;;;;;;3.97;1.00;;;;;;;17.96;50.68;96511.09;10454936;28;20037;-23
2022/06/01 17:59:49;;;;;;;1.95;1.20;;;;;;;17.99;50.87;96506.88;10455234;28;20060;-24
2022/06/01 18:04:51;;;;;;;6.80;1.33;;;;;;;18.01;50.67;96514.47;10474209;28;20435;-25
2022/06/01 18:09:51;;;;;;;7.53;1.58;;;;;;;18.14;51.52;96521.19;10476459;28;20411;-23
2022/06/01 18:14:52;;;;;;;4.87;2.30;;;;;;;18.22;50.92;96517.81;10475082;28;20037;-23
2022/06/01 18:19:52;;;;;;;1.63;1.15;;;;;;;17.99;51.19;96528.84;10465646;28;20227;-25
2022/06/01 18:24:53;;;;;;;2.40;1.00;;;;;;;18.07;50.62;96529.66;10454323;28;20028;-24
2022/06/01 18:29:54;;;;;;;1.23;0.80;;;;;;;18.04;50.40;96530.50;10454453;28;20390;-24
2022/06/01 18:34:54;;;;;;;4.30;1.20;;;;;;;18.08;51.19;96536.41;10454631;28;20200;-24
2022/06/01 18:39:55;;;;;;;2.90;1.33;;;;;;;18.07;50.58;96540.63;10453880;28;20033;-23
2022/06/01 18:44:55;;;;;;;2.25;1.00;;;;;;;18.02;50.68;96549.94;10454185;28;20650;-23
2022/06/01 18:49:55;;;;;;;3.60;2.40;;;;;;;18.03;50.59;96548.22;10453777;28;20041;-22
2022/06/01 18:54:56;;;;;;;0.97;0.87;;;;;;;18.03;50.60;96549.09;10454619;28;20419;-23
2022/06/01 19:05:16;;;;;;;1.83;1.10;;;;;;;18.05;50.59;96552.47;10472382;28;20071;-23
2022/06/01 19:10:17;;;;;;;2.28;1.13;;;;;;;18.01;50.83;96555.81;10452965;28;20037;-22
2022/06/01 19:15:18;;;;;;;0.95;0.77;;;;;;;18.04;50.87;96554.97;10491966;28;20153;-22
2022/06/01 19:20:18;;;;;;;1.85;0.88;;;;;;;18.01;50.91;96573.56;10491259;28;20037;-23
2022/06/01 19:25:19;;;;;;;1.35;0.90;;;;;;;18.04;50.81;96576.09;10460573;28;20040;-22
2022/06/01 19:30:22;;;;;;;2.67;1.10;;;;;;;17.95;51.13;96567.66;10493008;28;20387;-23
2022/06/01 19:35:25;;;;;;;2.05;1.13;;;;;;;17.96;51.34;96576.94;10480822;28;20044;-23
2022/06/01 19:45:45;;;;;;;3.63;1.17;;;;;;;18.01;51.42;96575.25;10476177;28;20085;-25
2022/06/01 19:50:45;;;;;;;2.53;1.10;;;;;;;18.04;51.10;96588.78;10467965;28;20093;-22
2022/06/01 19:55:47;;;;;;;4.83;1.30;;;;;;;18.09;51.02;96598.91;10480010;28;20389;-21
2022/06/01 20:00:48;;;;;;;4.35;1.00;;;;;;;18.04;51.00;96590.44;10450262;28;20279;-23
2022/06/01 20:05:48;;;;;;;2.63;1.27;;;;;;;17.95;51.35;96600.59;10477041;28;20024;-21
2022/06/01 20:10:49;;;;;;;3.67;1.30;;;;;;;18.05;51.28;96608.19;10480076;28;20069;-21
2022/06/01 20:15:54;;;;;;;3.13;1.10;;;;;;;18.05;51.40;96610.72;10449661;28;20036;-21
2022/06/01 20:20:55;;;;;;;2.15;1.33;;;;;;;18.13;51.79;96613.25;10455057;28;20526;-25
2022/06/01 20:25:56;;;;;;;1.55;1.20;;;;;;;18.05;51.44;96632.66;10449700;28;20029;-22
2022/06/01 20:30:57;;;;;;;2.80;1.30;;;;;;;18.02;51.76;96636.06;10480702;28;20032;-22
2022/06/01 20:35:57;;;;;;;8.57;1.70;;;;;;;18.18;51.70;96632.66;10478239;28;20041;-21
2022/06/01 20:40:59;;;;;;;1.55;1.30;;;;;;;18.09;51.41;96630.13;10449756;28;20098;-21
2022/06/01 20:46:02;;;;;;;1.63;1.10;;;;;;;18.03;51.48;96634.34;10449121;28;20041;-21
2022/06/01 20:51:04;;;;;;;2.15;1.60;;;;;;;18.04;51.73;96646.19;10454043;28;20094;-22
2022/06/01 20:56:05;;;;;;;2.80;1.50;;;;;;;18.03;51.54;96641.97;10478043;28;20036;-22
2022/06/01 21:01:06;;;;;;;2.55;1.45;;;;;;;17.99;51.63;96643.66;10491397;28;20036;-21
2022/06/01 21:06:07;;;;;;;2.33;1.17;;;;;;;17.95;51.53;96641.97;10468145;28;20410;-22
2022/06/01 21:11:08;;;;;;;1.83;1.20;;;;;;;17.94;51.87;96636.88;10448214;28;20287;-21
2022/06/01 21:16:16;;;;;;;1.35;1.05;;;;;;;17.92;51.93;96643.66;10448487;28;20128;-23
2022/06/01 21:21:17;;;;;;;2.85;1.17;;;;;;;17.92;52.03;96656.31;10448739;28;20495;-21
2022/06/01 21:26:17;;;;;;;1.43;1.10;;;;;;;18.00;51.84;96649.56;10447988;28;20029;-22
2022/06/01 21:31:18;;;;;;;1.73;1.30;;;;;;;17.99;51.81;96655.47;10448649;28;20818;-22
2022/06/01 21:36:18;;;;;;;1.92;1.10;;;;;;;17.93;51.99;96653.75;10453125;28;20483;-22
2022/06/01 21:41:18;;;;;;;1.83;1.17;;;;;;;17.88;51.85;96658.00;10470180;28;20041;-22
2022/06/01 21:46:19;;;;;;;2.00;1.07;;;;;;;17.82;51.99;96663.03;10497207;28;20039;-22
2022/06/01 21:51:20;;;;;;;2.38;1.13;;;;;;;17.84;52.09;96683.31;10472541;28;20117;-22
2022/06/01 21:56:20;;;;;;;1.35;1.23;;;;;;;17.87;52.24;96688.38;10456231;28;20119;-20
2022/06/01 22:01:21;;;;;;;2.43;1.27;;;;;;;17.82;52.18;96687.53;10456100;28;20032;-22
2022/06/01 22:06:22;;;;;;;2.42;1.10;;;;;;;17.75;52.68;96698.50;10485739;28;20036;-22
2022/06/01 22:16:41;;;;;;;2.58;1.00;;;;;;;17.82;52.31;96708.63;10455630;28;20279;-21
2022/06/01 22:21:41;;;;;;;1.80;1.23;;;;;;;17.85;52.42;96711.19;10478621;28;20102;-20
2022/06/01 22:26:42;;;;;;;2.33;1.43;;;;;;;17.68;52.66;96711.97;10478639;28;20043;-21
2022/06/01 22:31:42;;;;;;;1.53;1.20;;;;;;;17.73;52.62;96726.34;10455146;28;20110;-22
2022/06/01 22:42:04;;;;;;;1.50;1.40;;;;;;;17.75;52.59;96731.41;10474567;28;20040;-22
2022/06/01 22:47:09;;;;;;;1.63;1.40;;;;;;;17.74;52.74;96722.13;10453400;28;20403;-22
2022/06/01 22:52:42;;;;;;;2.58;1.15;;;;;;;17.69;52.84;96729.72;10484069;28;20090;-22
2022/06/01 22:57:42;;;;;;;2.25;1.30;;;;;;;17.70;52.92;96715.34;10482634;28;20052;-23
2022/06/01 23:02:43;;;;;;;3.37;1.63;;;;;;;17.76;52.76;96706.06;10493741;28;20032;-25
2022/06/01 23:07:44;;;;;;;2.08;1.30;;;;;;;17.85;52.69;96710.31;10462192;28;20043;-21
2022/06/01 23:12:44;;;;;;;1.05;0.95;;;;;;;17.87;52.80;96723.84;10452353;28;20033;-22
2022/06/01 23:17:45;;;;;;;1.90;1.10;;;;;;;17.84;52.44;96719.59;10452819;28;20095;-21
2022/06/01 23:22:45;;;;;;;1.70;1.40;;;;;;;17.75;52.68;96716.22;10453653;28;20033;-21
2022/06/01 23:27:46;;;;;;;1.10;1.00;;;;;;;17.72;52.89;96718.72;10452756;28;20407;-22
2022/06/01 23:33:15;;;;;;;2.05;1.20;;;;;;;17.63;52.88;96719.56;10452193;28;20570;-23
2022/06/01 23:38:55;;;;;;;1.45;1.08;;;;;;;17.69;52.84;96738.97;10451758;28;20512;-22
2022/06/01 23:44:14;;;;;;;1.67;1.10;;;;;;;17.69;53.18;96731.38;10450319;28;20187;-22
2022/06/01 23:49:43;;;;;;;4.20;1.30;;;;;;;17.65;52.88;96727.16;10455860;28;20059;-22
2022/06/01 23:55:17;;;;;;;1.27;1.13;;;;;;;17.71;53.32;96717.03;10490158;28;20029;-21
